AXM163 VVNB-VVTS
Flight info
| Callsign | AXM163 |
|---|---|
| Flight time | N/A |
| Altitude | 39000 |
| Route | NAH3A NAH Q1 DOVIN DOVIN5P |
| Aircraft | A20N/M-SDE2E3FGHIRWXY/LB1 |
Departure
| Time | 2026-05-01 14:33 |
|---|---|
| Airport | Noi Bai International Airport (VVNB) |
Arrival
| Time | N/A |
|---|---|
| Airport | Tan Son Nhat International Airport (VVTS) |
| Time | Latitude | Longitude | Altitude | Speed | Heading |
|---|---|---|---|---|---|
| 2026-05-01 14:05 | 21.22030 | 105.78808 | 51 ft | 0 kts | 199° |
| 2026-05-01 14:24 | 21.22040 | 105.78811 | 45 ft | 3 kts | 199° |
| 2026-05-01 14:24 | 21.22060 | 105.78819 | 47 ft | 3 kts | 201° |
| 2026-05-01 14:25 | 21.22080 | 105.78828 | 50 ft | 3 kts | 204° |
| 2026-05-01 14:25 | 21.22100 | 105.78838 | 46 ft | 3 kts | 211° |
| 2026-05-01 14:25 | 21.22117 | 105.78851 | 48 ft | 3 kts | 234° |
| 2026-05-01 14:25 | 21.22123 | 105.78866 | 48 ft | 0 kts | 283° |
| 2026-05-01 14:30 | 21.22133 | 105.78821 | 51 ft | 7 kts | 283° |
| 2026-05-01 14:30 | 21.22148 | 105.78754 | 51 ft | 11 kts | 284° |
| 2026-05-01 14:30 | 21.22177 | 105.78660 | 51 ft | 15 kts | 291° |
| 2026-05-01 14:31 | 21.22296 | 105.78595 | 51 ft | 10 kts | 22° |
| 2026-05-01 14:31 | 21.22370 | 105.78619 | 51 ft | 12 kts | 9° |
| 2026-05-01 14:31 | 21.22446 | 105.78649 | 52 ft | 9 kts | 49° |
| 2026-05-01 14:31 | 21.22453 | 105.78703 | 50 ft | 0 kts | 100° |
| 2026-05-01 14:32 | 21.22446 | 105.78732 | 51 ft | 14 kts | 104° |
| 2026-05-01 14:32 | 21.22347 | 105.79069 | 51 ft | 82 kts | 108° |
| 2026-05-01 14:32 | 21.22118 | 105.79853 | 47 ft | 136 kts | 107° |
| 2026-05-01 14:32 | 21.21794 | 105.80966 | 270 ft | 169 kts | 107° |
| 2026-05-01 14:33 | 21.21459 | 105.82231 | 817 ft | 187 kts | 108° |
| 2026-05-01 14:33 | 21.21059 | 105.83673 | 1213 ft | 221 kts | 109° |
| 2026-05-01 14:33 | 21.20573 | 105.85398 | 1609 ft | 256 kts | 109° |
| 2026-05-01 14:33 | 21.20053 | 105.87200 | 2620 ft | 252 kts | 111° |
| 2026-05-01 14:34 | 21.19521 | 105.89024 | 3206 ft | 261 kts | 111° |
| 2026-05-01 14:34 | 21.18990 | 105.90903 | 3988 ft | 265 kts | 110° |
| 2026-05-01 14:34 | 21.18460 | 105.92823 | 4831 ft | 272 kts | 109° |
| 2026-05-01 14:34 | 21.17925 | 105.94801 | 5675 ft | 281 kts | 109° |
| 2026-05-01 14:35 | 21.17353 | 105.96837 | 6524 ft | 288 kts | 115° |
| 2026-05-01 14:35 | 21.16248 | 105.98595 | 7346 ft | 285 kts | 142° |
| 2026-05-01 14:35 | 21.14562 | 105.99649 | 8214 ft | 280 kts | 168° |
| 2026-05-01 14:35 | 21.12661 | 106.00006 | 9168 ft | 279 kts | 177° |
| 2026-05-01 14:36 | 21.10721 | 106.00259 | 10038 ft | 283 kts | 178° |
| 2026-05-01 14:36 | 21.08708 | 106.00515 | 10527 ft | 303 kts | 177° |
| 2026-05-01 14:36 | 21.06537 | 106.00809 | 10808 ft | 326 kts | 176° |
| 2026-05-01 14:36 | 21.04236 | 106.01146 | 11340 ft | 338 kts | 176° |
| 2026-05-01 14:37 | 21.01891 | 106.01506 | 12092 ft | 342 kts | 176° |
| 2026-05-01 14:37 | 20.99550 | 106.01869 | 12851 ft | 347 kts | 176° |
| 2026-05-01 14:37 | 20.97146 | 106.02242 | 13616 ft | 351 kts | 176° |
| 2026-05-01 14:37 | 20.94717 | 106.02617 | 14288 ft | 355 kts | 176° |
| 2026-05-01 14:38 | 20.92259 | 106.02994 | 14941 ft | 359 kts | 176° |
| 2026-05-01 14:38 | 20.89768 | 106.03376 | 15607 ft | 363 kts | 176° |
| 2026-05-01 14:38 | 20.87256 | 106.03760 | 16247 ft | 367 kts | 176° |
| 2026-05-01 14:38 | 20.84715 | 106.04149 | 16889 ft | 371 kts | 176° |
| 2026-05-01 14:39 | 20.82138 | 106.04542 | 17524 ft | 375 kts | 176° |
| 2026-05-01 14:39 | 20.79536 | 106.04940 | 18144 ft | 380 kts | 176° |
| 2026-05-01 14:39 | 20.76907 | 106.05341 | 18678 ft | 383 kts | 176° |
| 2026-05-01 14:39 | 20.74258 | 106.05746 | 19231 ft | 387 kts | 176° |
| 2026-05-01 14:40 | 20.71581 | 106.06155 | 19766 ft | 390 kts | 176° |
| 2026-05-01 14:40 | 20.68890 | 106.06565 | 20279 ft | 394 kts | 176° |
| 2026-05-01 14:40 | 20.66163 | 106.06981 | 20808 ft | 397 kts | 176° |
| 2026-05-01 14:40 | 20.63415 | 106.07400 | 21343 ft | 400 kts | 176° |
| 2026-05-01 14:41 | 20.60643 | 106.07822 | 21863 ft | 404 kts | 176° |
| 2026-05-01 14:41 | 20.57846 | 106.08248 | 22379 ft | 408 kts | 176° |
| 2026-05-01 14:41 | 20.55031 | 106.08710 | 22886 ft | 412 kts | 174° |
| 2026-05-01 14:41 | 20.52195 | 106.09239 | 23378 ft | 416 kts | 174° |
| 2026-05-01 14:42 | 20.49337 | 106.09786 | 23831 ft | 419 kts | 174° |
| 2026-05-01 14:42 | 20.46459 | 106.10334 | 24262 ft | 421 kts | 174° |
| 2026-05-01 14:42 | 20.43563 | 106.10878 | 24680 ft | 424 kts | 174° |
| 2026-05-01 14:42 | 20.40647 | 106.11460 | 25085 ft | 429 kts | 171° |
| 2026-05-01 14:43 | 20.37765 | 106.12361 | 25477 ft | 435 kts | 164° |
| 2026-05-01 14:43 | 20.34954 | 106.13635 | 25851 ft | 442 kts | 158° |
| 2026-05-01 14:43 | 20.32170 | 106.15045 | 26235 ft | 445 kts | 159° |
| 2026-05-01 14:43 | 20.29362 | 106.16458 | 26616 ft | 448 kts | 159° |
| 2026-05-01 14:44 | 20.26536 | 106.17874 | 26995 ft | 450 kts | 159° |
| 2026-05-01 14:44 | 20.20827 | 106.20726 | 27716 ft | 456 kts | 159° |
| 2026-05-01 14:44 | 20.17946 | 106.22165 | 28062 ft | 459 kts | 159° |
| 2026-05-01 14:45 | 20.15051 | 106.23610 | 28408 ft | 461 kts | 159° |
| 2026-05-01 14:45 | 20.09204 | 106.26527 | 29077 ft | 467 kts | 159° |
| 2026-05-01 14:45 | 20.06254 | 106.27998 | 29405 ft | 469 kts | 159° |
| 2026-05-01 14:46 | 20.03290 | 106.29475 | 29711 ft | 472 kts | 159° |
| 2026-05-01 14:46 | 19.97338 | 106.32439 | 30285 ft | 477 kts | 159° |
| 2026-05-01 14:46 | 19.94323 | 106.33941 | 30603 ft | 479 kts | 159° |
| 2026-05-01 14:47 | 19.91296 | 106.35447 | 30889 ft | 481 kts | 159° |
| 2026-05-01 14:47 | 19.88261 | 106.36957 | 31242 ft | 482 kts | 159° |
| 2026-05-01 14:47 | 19.85228 | 106.38466 | 31647 ft | 481 kts | 159° |
| 2026-05-01 14:48 | 19.79178 | 106.41474 | 32467 ft | 479 kts | 159° |
| 2026-05-01 14:48 | 19.76163 | 106.42971 | 32863 ft | 478 kts | 159° |
| 2026-05-01 14:48 | 19.70146 | 106.45957 | 33633 ft | 476 kts | 160° |
| 2026-05-01 14:49 | 19.64134 | 106.48934 | 34205 ft | 477 kts | 159° |
| 2026-05-01 14:49 | 19.58138 | 106.51907 | 34831 ft | 475 kts | 159° |
| 2026-05-01 14:50 | 19.54133 | 106.53890 | 35226 ft | 474 kts | 159° |
| 2026-05-01 14:50 | 19.46189 | 106.57820 | 36007 ft | 472 kts | 159° |
| 2026-05-01 14:51 | 19.43212 | 106.59291 | 36296 ft | 472 kts | 160° |
| 2026-05-01 14:51 | 19.37271 | 106.62225 | 36872 ft | 470 kts | 160° |
| 2026-05-01 14:52 | 19.31337 | 106.65152 | 37308 ft | 471 kts | 159° |
| 2026-05-01 14:52 | 19.28365 | 106.66618 | 37558 ft | 471 kts | 159° |
| 2026-05-01 14:52 | 19.22445 | 106.69539 | 38045 ft | 470 kts | 160° |
| 2026-05-01 14:53 | 19.19473 | 106.70966 | 38239 ft | 470 kts | 161° |
| 2026-05-01 14:53 | 19.16483 | 106.72361 | 38423 ft | 470 kts | 161° |
| 2026-05-01 14:53 | 19.13530 | 106.73731 | 38629 ft | 470 kts | 161° |
| 2026-05-01 14:53 | 19.10540 | 106.75122 | 38819 ft | 469 kts | 161° |
| 2026-05-01 14:54 | 19.07555 | 106.76514 | 38924 ft | 469 kts | 161° |
| 2026-05-01 14:54 | 19.01597 | 106.79302 | 38938 ft | 468 kts | 161° |
| 2026-05-01 14:55 | 18.95662 | 106.82078 | 38958 ft | 466 kts | 161° |
| 2026-05-01 14:55 | 18.89727 | 106.84853 | 38958 ft | 467 kts | 161° |
| 2026-05-01 14:56 | 18.83794 | 106.87624 | 38953 ft | 466 kts | 161° |
| 2026-05-01 14:56 | 18.77858 | 106.90392 | 38952 ft | 466 kts | 161° |
| 2026-05-01 14:57 | 18.71921 | 106.93157 | 38950 ft | 466 kts | 161° |
| 2026-05-01 14:57 | 18.63019 | 106.97299 | 38963 ft | 466 kts | 161° |
| 2026-05-01 14:58 | 18.57094 | 107.00055 | 38957 ft | 465 kts | 161° |
| 2026-05-01 14:58 | 18.51168 | 107.02808 | 38958 ft | 465 kts | 161° |
| 2026-05-01 14:59 | 18.45246 | 107.05558 | 38970 ft | 465 kts | 160° |
| 2026-05-01 14:59 | 18.39353 | 107.08296 | 38962 ft | 465 kts | 160° |
| 2026-05-01 15:00 | 18.30474 | 107.12420 | 38959 ft | 465 kts | 160° |
| 2026-05-01 15:01 | 18.24558 | 107.15165 | 38947 ft | 465 kts | 160° |
| 2026-05-01 15:01 | 18.18636 | 107.17911 | 38949 ft | 465 kts | 160° |
| 2026-05-01 15:02 | 18.12714 | 107.20655 | 38954 ft | 465 kts | 160° |
| 2026-05-01 15:02 | 18.06785 | 107.23399 | 38951 ft | 466 kts | 160° |
| 2026-05-01 15:03 | 18.00868 | 107.26197 | 38960 ft | 466 kts | 160° |
| 2026-05-01 15:03 | 17.94957 | 107.29020 | 38966 ft | 467 kts | 160° |
| 2026-05-01 15:04 | 17.89078 | 107.31816 | 38963 ft | 467 kts | 160° |
| 2026-05-01 15:04 | 17.83119 | 107.34643 | 38965 ft | 468 kts | 160° |
| 2026-05-01 15:05 | 17.77182 | 107.37459 | 38972 ft | 468 kts | 160° |
| 2026-05-01 15:05 | 17.71247 | 107.40271 | 38969 ft | 468 kts | 160° |
| 2026-05-01 15:06 | 17.65305 | 107.43084 | 38974 ft | 468 kts | 160° |
| 2026-05-01 15:06 | 17.59401 | 107.45878 | 38962 ft | 469 kts | 160° |
| 2026-05-01 15:07 | 17.54415 | 107.48235 | 38957 ft | 469 kts | 160° |
| 2026-05-01 15:07 | 17.47493 | 107.51504 | 38957 ft | 470 kts | 160° |
| 2026-05-01 15:08 | 17.41532 | 107.54318 | 38965 ft | 470 kts | 160° |
| 2026-05-01 15:08 | 17.36535 | 107.56676 | 38965 ft | 470 kts | 160° |
| 2026-05-01 15:09 | 17.30567 | 107.59489 | 38961 ft | 470 kts | 160° |
| 2026-05-01 15:09 | 17.24604 | 107.62298 | 38965 ft | 470 kts | 160° |
| 2026-05-01 15:10 | 17.18635 | 107.65108 | 38963 ft | 470 kts | 160° |
| 2026-05-01 15:10 | 17.09690 | 107.69340 | 38963 ft | 471 kts | 160° |
| 2026-05-01 15:11 | 17.00786 | 107.73684 | 38959 ft | 471 kts | 159° |
| 2026-05-01 15:12 | 16.94852 | 107.76568 | 38965 ft | 470 kts | 159° |
| 2026-05-01 15:12 | 16.85978 | 107.80869 | 38952 ft | 468 kts | 159° |
| 2026-05-01 15:14 | 16.71234 | 107.88004 | 38947 ft | 469 kts | 159° |
| 2026-05-01 15:14 | 16.62364 | 107.92298 | 38953 ft | 469 kts | 159° |
| 2026-05-01 15:15 | 16.50541 | 107.98019 | 38960 ft | 468 kts | 159° |
| 2026-05-01 15:16 | 16.38727 | 108.03718 | 38966 ft | 468 kts | 159° |
| 2026-05-01 15:18 | 16.23962 | 108.10830 | 38957 ft | 467 kts | 159° |
| 2026-05-01 15:19 | 16.12215 | 108.16481 | 38967 ft | 465 kts | 159° |
| 2026-05-01 15:19 | 16.06187 | 108.18787 | 38966 ft | 459 kts | 171° |
| 2026-05-01 15:19 | 16.03059 | 108.19411 | 38966 ft | 456 kts | 176° |
| 2026-05-01 15:20 | 15.93639 | 108.19562 | 39179 ft | 452 kts | 185° |
| 2026-05-01 15:20 | 15.90496 | 108.19493 | 39349 ft | 452 kts | 185° |
| 2026-05-01 15:21 | 15.87351 | 108.19425 | 39442 ft | 453 kts | 185° |
| 2026-05-01 15:21 | 15.81050 | 108.19290 | 39471 ft | 452 kts | 185° |
| 2026-05-01 15:22 | 15.71622 | 108.19088 | 39469 ft | 452 kts | 185° |
| 2026-05-01 15:22 | 15.65328 | 108.18952 | 39468 ft | 452 kts | 185° |
| 2026-05-01 15:23 | 15.59044 | 108.18816 | 39469 ft | 452 kts | 185° |
| 2026-05-01 15:23 | 15.52759 | 108.18680 | 39483 ft | 451 kts | 184° |
| 2026-05-01 15:24 | 15.46478 | 108.18545 | 39488 ft | 451 kts | 184° |
| 2026-05-01 15:24 | 15.40196 | 108.18410 | 39497 ft | 452 kts | 184° |
| 2026-05-01 15:25 | 15.33908 | 108.18275 | 39496 ft | 452 kts | 184° |
| 2026-05-01 15:25 | 15.27621 | 108.18139 | 39519 ft | 452 kts | 184° |
| 2026-05-01 15:26 | 15.21335 | 108.18004 | 39510 ft | 452 kts | 184° |
| 2026-05-01 15:26 | 15.15090 | 108.17870 | 39523 ft | 452 kts | 184° |
| 2026-05-01 15:27 | 15.08799 | 108.17735 | 39515 ft | 452 kts | 184° |
| 2026-05-01 15:28 | 14.99359 | 108.17528 | 39525 ft | 452 kts | 184° |
| 2026-05-01 15:28 | 14.93072 | 108.17388 | 39532 ft | 452 kts | 184° |
| 2026-05-01 15:29 | 14.83620 | 108.17180 | 39512 ft | 453 kts | 184° |
| 2026-05-01 15:30 | 14.71000 | 108.16903 | 39522 ft | 454 kts | 184° |
| 2026-05-01 15:31 | 14.51991 | 108.16485 | 39532 ft | 457 kts | 184° |
| 2026-05-01 15:32 | 14.39267 | 108.16205 | 39531 ft | 458 kts | 184° |
| 2026-05-01 15:34 | 14.20224 | 108.15792 | 39504 ft | 455 kts | 184° |